Yuma, Arizona
Current Conditions -  °F | °C
As of 11:57 AM on Friday 31 Oct 2014 (Local Time) from KNYL Reporting Station
Clear Clear  
Wind Chill: 86°   Ceiling: Unl
Heat Index: 86°   Visibility: 10mi
Dew Point: 58°   Wind: 9mph
Humidity: 38%   Direction: 190°S
Pressure: 29.83"   Gusts: NA
Location:  32.68°N, 114.62°W
Report Text: KNYL 311857Z 19008KT 10SM CLR 30/14 A2983 RMK AO2 SLP098 T03000144
Loading
Personal Weather Stations






























Interactive Weather Map
Tropical Storm Tracking
New forecast layout! Learn more

10-Day Weather Forecast

Advertisements
Track Severe Weather on mobile